Time;durP1;ratioP1;P1;durP2;ratioP2;P2;SDS_P1;SDS_P2;PMS_P1;PMS_P2;Temp;Humidity;BMP_temperature;BMP_pressure;BME280_temperature;BME280_humidity;BME280_pressure;Samples;Min_cycle;Max_cycle;Signal;HPM_P1;HPM_P2
2023/11/22 00:00:09;;;;;;;3.78;3.47;;;;;;;;;;5042557;28;20460;-63
2023/11/22 00:02:37;;;;;;;3.53;3.28;;;;;;;;;;5041863;28;20332;-62
2023/11/22 00:05:06;;;;;;;3.20;2.90;;;;;;;;;;5042544;28;20406;-64
2023/11/22 00:07:35;;;;;;;3.20;2.90;;;;;;;;;;5040191;28;20376;-63
2023/11/22 00:10:04;;;;;;;3.60;2.90;;;;;;;;;;5039342;28;20595;-62
2023/11/22 00:12:36;;;;;;;3.40;3.20;;;;;;;;;;5045064;28;20463;-64
2023/11/22 00:15:07;;;;;;;3.20;3.00;;;;;;;;;;5043041;28;20045;-62
2023/11/22 00:17:36;;;;;;;3.50;3.20;;;;;;;;;;5043406;28;20056;-64
2023/11/22 00:20:06;;;;;;;3.63;3.35;;;;;;;;;;5045585;28;20068;-63
2023/11/22 00:22:35;;;;;;;3.30;3.10;;;;;;;;;;5048724;28;20054;-62
2023/11/22 00:25:03;;;;;;;3.25;3.05;;;;;;;;;;5040043;28;20046;-62
2023/11/22 00:27:32;;;;;;;3.90;3.60;;;;;;;;;;5045677;28;20434;-62
2023/11/22 00:30:00;;;;;;;5.32;3.60;;;;;;;;;;5044931;28;20501;-63
2023/11/22 00:32:30;;;;;;;3.28;3.08;;;;;;;;;;5047917;28;20065;-63
2023/11/22 00:34:59;;;;;;;3.28;3.03;;;;;;;;;;5040164;28;20055;-63
2023/11/22 00:37:27;;;;;;;4.05;3.75;;;;;;;;;;5048130;28;20048;-64
2023/11/22 00:39:55;;;;;;;3.30;3.10;;;;;;;;;;5038299;28;20564;-62
2023/11/22 00:42:24;;;;;;;3.42;3.13;;;;;;;;;;5040847;28;20051;-62
2023/11/22 00:44:52;;;;;;;3.78;3.47;;;;;;;;;;5046284;28;20134;-64
2023/11/22 00:47:21;;;;;;;3.00;2.80;;;;;;;;;;5045517;28;20226;-64
2023/11/22 00:49:50;;;;;;;4.65;3.45;;;;;;;;;;5042674;28;20041;-64
2023/11/22 00:52:19;;;;;;;3.80;3.50;;;;;;;;;;5042021;28;20075;-63
2023/11/22 00:54:47;;;;;;;3.70;3.40;;;;;;;;;;5040957;28;20095;-63
2023/11/22 00:57:15;;;;;;;3.83;3.35;;;;;;;;;;5036841;28;20086;-63
2023/11/22 00:59:44;;;;;;;3.35;3.13;;;;;;;;;;5043045;28;20049;-63
2023/11/22 01:02:12;;;;;;;3.35;3.15;;;;;;;;;;5047404;28;20618;-63
2023/11/22 01:04:41;;;;;;;3.20;3.00;;;;;;;;;;5048504;28;20041;-63
2023/11/22 01:07:11;;;;;;;4.20;3.42;;;;;;;;;;5037396;28;20110;-64
2023/11/22 01:09:39;;;;;;;3.25;2.95;;;;;;;;;;5041428;28;20096;-63
2023/11/22 01:12:09;;;;;;;3.28;3.08;;;;;;;;;;5045156;28;20145;-65
2023/11/22 01:14:37;;;;;;;3.47;3.17;;;;;;;;;;5042775;28;20102;-63
2023/11/22 01:17:06;;;;;;;3.42;3.22;;;;;;;;;;5043499;28;21014;-64
2023/11/22 01:19:34;;;;;;;3.50;3.20;;;;;;;;;;5040591;28;20050;-62
2023/11/22 01:22:02;;;;;;;3.35;2.80;;;;;;;;;;5036452;28;20661;-62
2023/11/22 01:24:32;;;;;;;3.00;2.80;;;;;;;;;;5042758;28;20042;-62
2023/11/22 01:27:01;;;;;;;3.38;3.15;;;;;;;;;;5042682;28;20498;-64
2023/11/22 01:29:29;;;;;;;2.95;2.75;;;;;;;;;;5043624;28;20414;-64
2023/11/22 01:31:58;;;;;;;3.30;3.10;;;;;;;;;;5047727;28;20041;-63
2023/11/22 01:34:26;;;;;;;2.53;2.40;;;;;;;;;;5049876;28;20078;-64
2023/11/22 01:36:55;;;;;;;3.78;3.47;;;;;;;;;;5050977;28;20102;-63
2023/11/22 01:39:23;;;;;;;3.28;3.08;;;;;;;;;;5047204;28;20053;-64
2023/11/22 01:41:54;;;;;;;3.67;2.97;;;;;;;;;;5049103;28;20052;-62
2023/11/22 01:44:23;;;;;;;3.20;2.90;;;;;;;;;;5040614;28;20085;-62
2023/11/22 01:46:52;;;;;;;3.13;2.92;;;;;;;;;;5048364;28;20441;-62
2023/11/22 01:49:20;;;;;;;3.40;3.15;;;;;;;;;;5049111;28;20057;-64
2023/11/22 01:51:48;;;;;;;3.35;3.15;;;;;;;;;;5040106;28;20460;-63
2023/11/22 01:54:17;;;;;;;2.97;2.78;;;;;;;;;;5043528;28;20049;-63
2023/11/22 01:56:46;;;;;;;3.00;2.80;;;;;;;;;;5048245;28;20048;-62
2023/11/22 01:59:16;;;;;;;3.17;2.90;;;;;;;;;;5050944;28;20053;-63
2023/11/22 02:01:44;;;;;;;2.72;2.50;;;;;;;;;;5038943;28;20044;-63
2023/11/22 02:04:14;;;;;;;3.17;2.92;;;;;;;;;;5044594;28;20055;-63
2023/11/22 02:06:42;;;;;;;2.95;2.75;;;;;;;;;;5045840;28;20712;-62
2023/11/22 02:09:15;;;;;;;3.00;2.80;;;;;;;;;;5051583;28;20083;-63
2023/11/22 02:11:45;;;;;;;2.60;2.40;;;;;;;;;;5049838;28;20060;-63
2023/11/22 02:14:13;;;;;;;2.20;2.10;;;;;;;;;;5050571;28;20071;-63
2023/11/22 02:16:43;;;;;;;2.22;2.13;;;;;;;;;;5034529;28;20410;-62
2023/11/22 02:19:15;;;;;;;2.33;2.22;;;;;;;;;;5045071;28;20064;-62
2023/11/22 02:21:44;;;;;;;2.20;2.10;;;;;;;;;;5050480;28;20053;-62
2023/11/22 02:24:14;;;;;;;2.20;2.10;;;;;;;;;;5044391;28;20048;-63
2023/11/22 02:26:45;;;;;;;2.60;2.50;;;;;;;;;;5050698;28;20052;-64
2023/11/22 02:29:14;;;;;;;2.00;1.90;;;;;;;;;;5044759;28;20095;-63
2023/11/22 02:31:43;;;;;;;1.80;1.70;;;;;;;;;;5046684;28;20075;-62
2023/11/22 02:34:12;;;;;;;2.20;2.10;;;;;;;;;;5044990;28;20452;-62
2023/11/22 02:36:40;;;;;;;2.45;2.35;;;;;;;;;;5042067;28;20076;-62
2023/11/22 02:39:11;;;;;;;2.03;1.92;;;;;;;;;;5044878;28;20455;-65
2023/11/22 02:41:40;;;;;;;2.28;2.17;;;;;;;;;;5048730;28;20110;-65
2023/11/22 02:44:09;;;;;;;2.65;2.55;;;;;;;;;;5043359;28;20053;-64
2023/11/22 02:46:37;;;;;;;2.50;2.40;;;;;;;;;;5048562;28;20102;-64
2023/11/22 02:49:06;;;;;;;2.38;2.28;;;;;;;;;;5043467;28;20056;-62
2023/11/22 02:51:34;;;;;;;2.35;2.25;;;;;;;;;;5038100;28;20071;-63
2023/11/22 02:54:04;;;;;;;2.50;2.40;;;;;;;;;;5035334;28;20076;-62
2023/11/22 02:56:32;;;;;;;2.30;2.20;;;;;;;;;;5050545;28;20094;-63
2023/11/22 02:59:02;;;;;;;2.45;2.28;;;;;;;;;;5039233;28;20076;-62
2023/11/22 03:01:31;;;;;;;2.42;2.33;;;;;;;;;;5044002;28;20052;-63
2023/11/22 03:03:59;;;;;;;2.30;2.17;;;;;;;;;;5043890;28;20347;-62
2023/11/22 03:06:28;;;;;;;2.10;2.00;;;;;;;;;;5049345;28;20122;-62
2023/11/22 03:08:56;;;;;;;2.05;1.95;;;;;;;;;;5042516;28;20065;-62
2023/11/22 03:11:25;;;;;;;2.58;2.38;;;;;;;;;;5039423;28;20060;-62
2023/11/22 03:13:53;;;;;;;2.08;1.98;;;;;;;;;;5046432;28;20045;-61
2023/11/22 03:16:24;;;;;;;2.05;1.95;;;;;;;;;;5046456;28;20114;-61
2023/11/22 03:18:54;;;;;;;2.25;2.15;;;;;;;;;;5043299;28;20336;-63
2023/11/22 03:21:22;;;;;;;2.33;2.22;;;;;;;;;;5042184;28;20348;-62
2023/11/22 03:23:51;;;;;;;2.28;2.17;;;;;;;;;;5040451;28;20045;-63
2023/11/22 03:26:19;;;;;;;2.72;2.53;;;;;;;;;;5040928;28;20083;-62
2023/11/22 03:28:48;;;;;;;2.42;2.33;;;;;;;;;;5044017;28;20034;-63
2023/11/22 03:31:16;;;;;;;2.28;2.17;;;;;;;;;;5042516;28;20052;-62
2023/11/22 03:33:46;;;;;;;1.98;1.88;;;;;;;;;;5046237;28;20410;-62
2023/11/22 03:36:15;;;;;;;2.28;2.17;;;;;;;;;;5048643;28;20071;-63
2023/11/22 03:38:43;;;;;;;2.25;2.15;;;;;;;;;;5043785;28;20057;-63
2023/11/22 03:41:11;;;;;;;2.75;2.65;;;;;;;;;;5040997;28;20045;-63
2023/11/22 03:43:40;;;;;;;2.10;2.00;;;;;;;;;;5039474;28;20084;-63
2023/11/22 03:46:08;;;;;;;2.20;2.10;;;;;;;;;;5043550;28;20102;-62
2023/11/22 03:48:36;;;;;;;2.70;2.60;;;;;;;;;;5043860;28;20053;-62
2023/11/22 03:51:06;;;;;;;2.25;2.15;;;;;;;;;;5043448;28;20099;-63
2023/11/22 03:53:35;;;;;;;2.33;2.22;;;;;;;;;;5041845;28;20103;-63
2023/11/22 03:56:03;;;;;;;2.17;2.08;;;;;;;;;;5044466;28;20402;-62
2023/11/22 03:58:31;;;;;;;2.15;2.05;;;;;;;;;;5041616;28;20048;-60
2023/11/22 04:01:02;;;;;;;2.40;2.30;;;;;;;;;;5042845;28;20065;-62
2023/11/22 04:03:31;;;;;;;2.55;2.45;;;;;;;;;;5041976;28;20049;-62
2023/11/22 04:06:00;;;;;;;2.30;2.20;;;;;;;;;;5048422;28;20087;-62
2023/11/22 04:08:30;;;;;;;2.40;2.30;;;;;;;;;;5044808;28;20532;-63
2023/11/22 04:10:58;;;;;;;2.30;2.20;;;;;;;;;;5035134;28;20521;-62
2023/11/22 04:13:27;;;;;;;2.35;2.22;;;;;;;;;;5047481;28;20068;-62
2023/11/22 04:15:55;;;;;;;2.13;2.03;;;;;;;;;;5046638;28;20464;-62
2023/11/22 04:18:24;;;;;;;2.38;2.28;;;;;;;;;;5040882;28;20111;-62
2023/11/22 04:20:53;;;;;;;2.30;2.20;;;;;;;;;;5039739;28;20603;-63
2023/11/22 04:23:21;;;;;;;2.38;2.28;;;;;;;;;;5041598;28;20068;-64
2023/11/22 04:25:51;;;;;;;2.20;2.10;;;;;;;;;;5049248;28;20157;-62
2023/11/22 04:28:19;;;;;;;2.40;2.30;;;;;;;;;;5044173;28;20041;-62
2023/11/22 04:30:47;;;;;;;2.47;2.38;;;;;;;;;;5038550;28;20325;-62
2023/11/22 04:33:16;;;;;;;2.38;2.28;;;;;;;;;;5048106;28;20072;-62
2023/11/22 04:35:46;;;;;;;2.83;2.65;;;;;;;;;;5048047;28;20407;-62
2023/11/22 04:38:14;;;;;;;2.30;2.20;;;;;;;;;;5047488;28;20049;-65
2023/11/22 04:40:43;;;;;;;3.00;2.80;;;;;;;;;;5043349;28;20076;-62
2023/11/22 04:43:13;;;;;;;2.40;2.30;;;;;;;;;;5047295;28;21794;-62
2023/11/22 04:45:41;;;;;;;2.60;2.50;;;;;;;;;;5042640;28;20154;-62
2023/11/22 04:48:09;;;;;;;2.80;2.67;;;;;;;;;;5044790;28;20053;-62
2023/11/22 04:50:38;;;;;;;2.90;2.70;;;;;;;;;;5040117;28;20056;-62
2023/11/22 04:53:06;;;;;;;2.42;2.33;;;;;;;;;;5035934;28;20136;-62
2023/11/22 04:55:35;;;;;;;2.55;2.40;;;;;;;;;;5044680;28;20048;-62
2023/11/22 04:58:03;;;;;;;2.17;2.08;;;;;;;;;;5046263;28;20065;-62
2023/11/22 05:00:33;;;;;;;2.60;2.50;;;;;;;;;;5037711;28;20052;-60
2023/11/22 05:03:02;;;;;;;2.30;2.20;;;;;;;;;;5041060;28;20123;-61
2023/11/22 05:05:30;;;;;;;2.50;2.40;;;;;;;;;;5036536;28;20060;-61
2023/11/22 05:07:58;;;;;;;2.33;2.22;;;;;;;;;;5044395;28;20540;-62
2023/11/22 05:10:27;;;;;;;2.70;2.60;;;;;;;;;;5037984;28;20048;-61
2023/11/22 05:12:59;;;;;;;2.53;2.42;;;;;;;;;;5034664;28;20417;-62
2023/11/22 05:15:28;;;;;;;2.30;2.20;;;;;;;;;;5044047;28;20053;-62
2023/11/22 05:17:57;;;;;;;2.45;2.35;;;;;;;;;;5045421;28;20053;-62
2023/11/22 05:20:26;;;;;;;2.35;2.25;;;;;;;;;;5043825;28;20089;-62
2023/11/22 05:22:54;;;;;;;2.53;2.42;;;;;;;;;;5047270;28;20049;-61
2023/11/22 05:25:23;;;;;;;2.50;2.40;;;;;;;;;;5044536;28;20456;-61
2023/11/22 05:27:52;;;;;;;2.25;2.15;;;;;;;;;;5045033;28;20130;-62
2023/11/22 05:30:21;;;;;;;2.30;2.20;;;;;;;;;;5034283;28;20042;-63
2023/11/22 05:32:51;;;;;;;2.47;2.38;;;;;;;;;;5040646;28;20071;-62
2023/11/22 05:35:20;;;;;;;2.42;2.33;;;;;;;;;;5037775;28;20154;-62
2023/11/22 05:37:49;;;;;;;2.47;2.38;;;;;;;;;;5031152;28;20281;-61
2023/11/22 05:40:17;;;;;;;2.40;2.20;;;;;;;;;;5035023;28;20049;-61
2023/11/22 05:42:46;;;;;;;2.40;2.30;;;;;;;;;;5041099;28;20468;-61
2023/11/22 05:45:14;;;;;;;2.20;2.10;;;;;;;;;;5033515;28;20502;-60
2023/11/22 05:47:42;;;;;;;2.40;2.30;;;;;;;;;;5046741;28;20099;-61
2023/11/22 05:50:11;;;;;;;2.42;2.33;;;;;;;;;;5046908;28;20120;-60
2023/11/22 05:52:41;;;;;;;2.38;2.28;;;;;;;;;;5044332;28;20132;-61
2023/11/22 05:55:10;;;;;;;2.25;2.15;;;;;;;;;;5045844;28;20125;-61
2023/11/22 05:57:38;;;;;;;2.80;2.63;;;;;;;;;;5034043;28;20138;-61
2023/11/22 06:00:07;;;;;;;2.78;2.67;;;;;;;;;;5039509;28;20103;-61
2023/11/22 06:02:37;;;;;;;2.40;2.30;;;;;;;;;;5047810;28;20049;-61
2023/11/22 06:05:06;;;;;;;2.47;2.38;;;;;;;;;;5037225;28;20041;-61
2023/11/22 06:07:35;;;;;;;2.42;2.33;;;;;;;;;;5041241;28;20044;-60
2023/11/22 06:10:05;;;;;;;2.53;2.42;;;;;;;;;;5044111;28;20502;-61
2023/11/22 06:12:33;;;;;;;2.30;2.20;;;;;;;;;;5037174;28;20053;-61
2023/11/22 06:15:03;;;;;;;2.42;2.33;;;;;;;;;;5044603;28;20445;-60
2023/11/22 06:17:31;;;;;;;2.10;2.00;;;;;;;;;;5040869;28;20146;-60
2023/11/22 06:20:00;;;;;;;2.42;2.33;;;;;;;;;;5042821;28;20510;-62
2023/11/22 06:22:28;;;;;;;2.42;2.33;;;;;;;;;;5046404;28;20087;-61
2023/11/22 06:24:56;;;;;;;2.20;2.10;;;;;;;;;;5044686;28;20049;-61
2023/11/22 06:27:26;;;;;;;2.42;2.33;;;;;;;;;;5042120;28;20059;-60
2023/11/22 06:29:55;;;;;;;2.50;2.40;;;;;;;;;;5037825;28;20045;-61
2023/11/22 06:32:23;;;;;;;2.40;2.30;;;;;;;;;;5045188;28;20107;-60
2023/11/22 06:34:52;;;;;;;2.67;2.58;;;;;;;;;;5037808;28;20045;-61
2023/11/22 06:37:20;;;;;;;2.42;2.33;;;;;;;;;;5043500;28;20081;-59
2023/11/22 06:39:50;;;;;;;2.78;2.67;;;;;;;;;;5045571;28;20051;-60
2023/11/22 06:42:19;;;;;;;2.03;1.92;;;;;;;;;;5041297;28;20045;-61
2023/11/22 06:44:49;;;;;;;2.25;2.15;;;;;;;;;;5042773;28;20521;-60
2023/11/22 06:47:18;;;;;;;2.47;2.38;;;;;;;;;;5044712;28;20870;-60
2023/11/22 06:49:47;;;;;;;2.35;2.25;;;;;;;;;;5048531;28;20454;-61
2023/11/22 06:52:17;;;;;;;2.30;2.20;;;;;;;;;;5036010;28;20494;-60
2023/11/22 06:54:45;;;;;;;2.53;2.42;;;;;;;;;;5032919;28;20154;-61
2023/11/22 06:57:13;;;;;;;2.47;2.38;;;;;;;;;;5031353;28;20131;-60
2023/11/22 06:59:42;;;;;;;3.03;2.83;;;;;;;;;;5042905;28;20053;-60
2023/11/22 07:02:12;;;;;;;3.70;2.67;;;;;;;;;;5032880;28;20049;-60
2023/11/22 07:04:40;;;;;;;2.55;2.45;;;;;;;;;;5047775;28;20055;-59
2023/11/22 07:07:10;;;;;;;2.88;2.70;;;;;;;;;;5044278;28;20047;-62
2023/11/22 07:09:43;;;;;;;2.83;2.72;;;;;;;;;;5033882;28;20140;-59
2023/11/22 07:12:12;;;;;;;2.50;2.40;;;;;;;;;;5046931;28;20142;-58
2023/11/22 07:14:43;;;;;;;2.45;2.30;;;;;;;;;;5047924;28;20049;-58
2023/11/22 07:17:13;;;;;;;2.53;2.42;;;;;;;;;;5042654;28;20582;-60
2023/11/22 07:19:46;;;;;;;2.85;2.65;;;;;;;;;;5046837;28;20057;-60
2023/11/22 07:22:17;;;;;;;2.55;2.45;;;;;;;;;;5034046;28;20045;-58
2023/11/22 07:24:45;;;;;;;2.30;2.20;;;;;;;;;;5036021;28;20056;-59
2023/11/22 07:27:13;;;;;;;2.40;2.30;;;;;;;;;;5044505;28;20082;-59
2023/11/22 07:29:42;;;;;;;3.03;2.83;;;;;;;;;;5041338;28;20057;-57
2023/11/22 07:32:12;;;;;;;2.80;2.60;;;;;;;;;;5045722;28;20103;-58
2023/11/22 07:34:42;;;;;;;2.90;2.70;;;;;;;;;;5043057;28;20506;-59
2023/11/22 07:37:10;;;;;;;3.10;2.90;;;;;;;;;;5047811;28;20052;-60
2023/11/22 07:39:39;;;;;;;3.03;2.80;;;;;;;;;;5048631;28;20057;-60
2023/11/22 07:42:08;;;;;;;2.72;2.63;;;;;;;;;;5041712;28;20049;-62
2023/11/22 07:44:37;;;;;;;3.05;2.85;;;;;;;;;;5042938;28;20059;-59
2023/11/22 07:47:10;;;;;;;2.72;2.63;;;;;;;;;;5047295;28;20049;-58
2023/11/22 07:49:42;;;;;;;3.00;2.80;;;;;;;;;;5032952;28;20557;-59
2023/11/22 07:52:13;;;;;;;2.70;2.60;;;;;;;;;;5041692;28;20449;-59
2023/11/22 07:54:42;;;;;;;2.53;2.42;;;;;;;;;;5038957;28;20470;-60
2023/11/22 07:57:11;;;;;;;3.05;2.85;;;;;;;;;;5047563;28;20053;-58
2023/11/22 07:59:39;;;;;;;2.67;2.50;;;;;;;;;;5039020;28;20048;-60
2023/11/22 08:02:10;;;;;;;3.20;2.97;;;;;;;;;;5048284;28;20084;-59
2023/11/22 08:04:40;;;;;;;3.17;2.97;;;;;;;;;;5042928;28;20056;-59
2023/11/22 08:07:11;;;;;;;2.80;2.60;;;;;;;;;;5048960;28;20041;-58
2023/11/22 08:09:39;;;;;;;2.90;2.70;;;;;;;;;;5048782;28;20079;-59
2023/11/22 08:12:08;;;;;;;3.00;2.80;;;;;;;;;;5038337;28;20100;-59
2023/11/22 08:14:36;;;;;;;3.30;3.03;;;;;;;;;;5038123;28;20103;-59
2023/11/22 08:17:05;;;;;;;3.15;2.95;;;;;;;;;;5043759;28;20084;-59
2023/11/22 08:19:34;;;;;;;3.30;3.10;;;;;;;;;;5046269;28;20064;-59
2023/11/22 08:22:03;;;;;;;3.28;3.08;;;;;;;;;;5040129;28;20574;-58
2023/11/22 08:24:33;;;;;;;3.15;2.95;;;;;;;;;;5038315;28;20067;-59
2023/11/22 08:27:03;;;;;;;3.75;3.55;;;;;;;;;;5042064;28;20110;-58
2023/11/22 08:29:31;;;;;;;2.70;2.55;;;;;;;;;;5045455;28;20052;-60
2023/11/22 08:32:00;;;;;;;3.20;3.00;;;;;;;;;;5046411;28;20052;-59
2023/11/22 08:34:28;;;;;;;3.17;2.88;;;;;;;;;;5038139;28;20049;-59
2023/11/22 08:36:58;;;;;;;3.33;3.10;;;;;;;;;;5043801;28;20067;-59
2023/11/22 08:39:27;;;;;;;3.03;2.83;;;;;;;;;;5046326;28;20059;-59
2023/11/22 08:41:58;;;;;;;3.88;2.83;;;;;;;;;;5038055;28;20049;-59
2023/11/22 08:44:26;;;;;;;3.03;2.83;;;;;;;;;;5037737;28;20064;-59
2023/11/22 08:46:55;;;;;;;3.67;3.38;;;;;;;;;;5040768;28;20103;-59
2023/11/22 08:49:23;;;;;;;2.55;2.45;;;;;;;;;;5038436;28;20057;-59
2023/11/22 08:51:52;;;;;;;2.88;2.70;;;;;;;;;;5044167;28;20114;-59
2023/11/22 08:54:20;;;;;;;3.50;3.30;;;;;;;;;;5037531;28;20504;-59
2023/11/22 08:56:49;;;;;;;3.35;3.15;;;;;;;;;;5039768;28;20073;-59
2023/11/22 08:59:18;;;;;;;3.55;3.35;;;;;;;;;;5035511;28;20502;-60
2023/11/22 09:01:46;;;;;;;2.90;2.70;;;;;;;;;;5041749;28;20343;-60
2023/11/22 09:04:15;;;;;;;3.00;2.78;;;;;;;;;;5044999;28;20041;-60
2023/11/22 09:06:44;;;;;;;2.78;2.65;;;;;;;;;;5044403;28;20161;-59
2023/11/22 09:09:15;;;;;;;3.20;3.00;;;;;;;;;;5044359;28;20460;-59
2023/11/22 09:11:43;;;;;;;3.20;3.00;;;;;;;;;;5043511;28;20065;-59
2023/11/22 09:14:12;;;;;;;2.92;2.72;;;;;;;;;;5045785;28;20304;-59
2023/11/22 09:16:43;;;;;;;2.88;2.67;;;;;;;;;;5042384;28;20606;-59
2023/11/22 09:19:12;;;;;;;3.05;2.88;;;;;;;;;;5045871;28;20080;-59
2023/11/22 09:21:40;;;;;;;3.00;2.80;;;;;;;;;;5041266;28;20056;-59
2023/11/22 09:24:10;;;;;;;3.10;2.90;;;;;;;;;;5042255;28;20041;-59
2023/11/22 09:26:39;;;;;;;2.85;2.65;;;;;;;;;;5040299;28;20089;-60
2023/11/22 09:29:07;;;;;;;3.00;2.90;;;;;;;;;;5027132;28;20076;-59
2023/11/22 09:31:36;;;;;;;2.92;2.78;;;;;;;;;;5037627;28;20128;-59
2023/11/22 09:34:06;;;;;;;3.08;2.88;;;;;;;;;;5038582;28;20103;-60
2023/11/22 09:36:34;;;;;;;2.97;2.60;;;;;;;;;;5044729;28;20049;-59
2023/11/22 09:39:08;;;;;;;2.97;2.78;;;;;;;;;;5045898;28;20060;-59
2023/11/22 09:41:37;;;;;;;3.00;2.80;;;;;;;;;;5042489;28;20048;-60
2023/11/22 09:44:06;;;;;;;2.63;2.42;;;;;;;;;;5031446;28;20122;-62
2023/11/22 09:46:36;;;;;;;2.70;2.60;;;;;;;;;;5042287;28;20522;-60
2023/11/22 09:49:09;;;;;;;2.90;2.70;;;;;;;;;;5044550;28;20137;-61
2023/11/22 09:51:39;;;;;;;3.15;2.95;;;;;;;;;;5046385;28;20191;-63
2023/11/22 09:54:12;;;;;;;4.47;2.83;;;;;;;;;;5042925;28;20098;-61
2023/11/22 09:56:41;;;;;;;2.42;2.33;;;;;;;;;;5045063;28;20045;-60
2023/11/22 09:59:11;;;;;;;3.35;3.05;;;;;;;;;;5042327;28;20099;-60
2023/11/22 10:01:40;;;;;;;2.83;2.72;;;;;;;;;;5041638;28;20111;-61
2023/11/22 10:04:09;;;;;;;2.97;2.78;;;;;;;;;;5034626;28;20230;-61
2023/11/22 10:06:40;;;;;;;3.33;3.13;;;;;;;;;;5040627;28;20128;-60
2023/11/22 10:09:09;;;;;;;3.22;3.03;;;;;;;;;;5043901;28;20052;-60
2023/11/22 10:11:40;;;;;;;3.15;2.95;;;;;;;;;;5044496;28;20570;-61
2023/11/22 10:14:08;;;;;;;3.10;2.90;;;;;;;;;;5049056;28;20084;-61
2023/11/22 10:16:37;;;;;;;3.10;2.90;;;;;;;;;;5037887;28;20049;-60
2023/11/22 10:19:07;;;;;;;3.35;3.15;;;;;;;;;;5042091;28;20050;-61
2023/11/22 10:21:39;;;;;;;3.40;3.10;;;;;;;;;;5045577;28;20416;-59
2023/11/22 10:24:09;;;;;;;3.03;2.83;;;;;;;;;;5040660;28;20053;-59
2023/11/22 10:26:38;;;;;;;2.58;2.47;;;;;;;;;;5043309;28;20050;-59
2023/11/22 10:29:08;;;;;;;3.00;2.80;;;;;;;;;;5041342;28;20057;-60
2023/11/22 10:31:36;;;;;;;3.25;3.05;;;;;;;;;;5046774;28;20051;-60
2023/11/22 10:34:05;;;;;;;3.25;3.05;;;;;;;;;;5042418;28;20080;-60
2023/11/22 10:36:33;;;;;;;3.08;2.88;;;;;;;;;;5047964;28;20056;-60
2023/11/22 10:39:03;;;;;;;3.15;2.95;;;;;;;;;;5042917;28;20072;-60
2023/11/22 10:41:39;;;;;;;3.05;2.85;;;;;;;;;;5048859;28;20579;-59
2023/11/22 10:44:08;;;;;;;3.22;3.03;;;;;;;;;;5045908;28;20564;-61
2023/11/22 10:46:36;;;;;;;3.20;3.00;;;;;;;;;;5043594;28;20052;-61
2023/11/22 10:49:05;;;;;;;2.97;2.83;;;;;;;;;;5034470;28;20060;-61
2023/11/22 10:51:33;;;;;;;3.35;3.15;;;;;;;;;;5044378;28;20160;-60
2023/11/22 10:54:04;;;;;;;3.15;2.95;;;;;;;;;;5038905;28;20041;-61
2023/11/22 10:56:37;;;;;;;2.60;2.50;;;;;;;;;;5045057;28;20064;-60
2023/11/22 10:59:08;;;;;;;3.10;2.90;;;;;;;;;;5043734;28;20059;-59
2023/11/22 11:01:37;;;;;;;3.28;3.08;;;;;;;;;;5045308;28;20394;-60
2023/11/22 11:04:11;;;;;;;3.10;2.90;;;;;;;;;;5040251;28;20502;-60
2023/11/22 11:06:40;;;;;;;;;;;;;;;;;;5048564;28;20405;-60
2023/11/22 11:09:12;;;;;;;2.83;2.72;;;;;;;;;;5040481;28;20440;-60
2023/11/22 11:11:40;;;;;;;3.10;2.90;;;;;;;;;;5048675;28;20045;-60
2023/11/22 11:14:11;;;;;;;3.08;2.95;;;;;;;;;;5042349;28;20049;-60
2023/11/22 11:16:41;;;;;;;3.50;3.30;;;;;;;;;;5034457;28;20045;-61
2023/11/22 11:19:10;;;;;;;2.67;2.58;;;;;;;;;;5041493;28;20064;-61
2023/11/22 11:21:40;;;;;;;3.05;2.85;;;;;;;;;;5047999;28;20573;-60
2023/11/22 11:24:11;;;;;;;2.83;2.72;;;;;;;;;;5038456;28;20534;-60
2023/11/22 11:26:39;;;;;;;3.22;3.03;;;;;;;;;;5044878;28;20486;-60
2023/11/22 11:29:08;;;;;;;3.28;2.90;;;;;;;;;;5038828;28;20103;-60
2023/11/22 11:31:41;;;;;;;3.33;3.13;;;;;;;;;;5047578;28;20053;-60
2023/11/22 11:34:09;;;;;;;35.20;30.23;;;;;;;;;;5040944;28;20517;-60
2023/11/22 11:36:39;;;;;;;1999.90;999.90;;;;;;;;;;5046776;28;20107;-60
2023/11/22 11:39:14;;;;;;;1999.90;999.90;;;;;;;;;;5035323;28;20052;-60
2023/11/22 11:41:44;;;;;;;1999.90;999.90;;;;;;;;;;5038837;28;20056;-61
2023/11/22 11:44:12;;;;;;;1999.90;999.90;;;;;;;;;;5043993;28;20136;-60
2023/11/22 11:46:41;;;;;;;1999.90;999.90;;;;;;;;;;5046138;28;20049;-60
2023/11/22 11:49:10;;;;;;;2.85;2.60;;;;;;;;;;5045028;28;20045;-60
2023/11/22 11:51:38;;;;;;;2.88;2.67;;;;;;;;;;5040513;28;20679;-61
2023/11/22 11:54:09;;;;;;;2.83;2.63;;;;;;;;;;5043511;28;20053;-60
2023/11/22 11:56:38;;;;;;;2.95;2.60;;;;;;;;;;5044167;28;20056;-59
2023/11/22 11:59:08;;;;;;;2.70;2.50;;;;;;;;;;5038023;28;20044;-60
2023/11/22 12:01:36;;;;;;;3.15;2.85;;;;;;;;;;5046244;28;20462;-60
2023/11/22 12:04:05;;;;;;;2.85;2.65;;;;;;;;;;5045908;28;20055;-60
2023/11/22 12:06:36;;;;;;;3.20;2.90;;;;;;;;;;5040882;28;20706;-60
2023/11/22 12:09:05;;;;;;;2.90;2.70;;;;;;;;;;5046933;28;20098;-61
2023/11/22 12:11:34;;;;;;;2.80;2.60;;;;;;;;;;5043603;28;20053;-60
2023/11/22 12:14:03;;;;;;;3.00;2.80;;;;;;;;;;5036104;28;20049;-61
2023/11/22 12:16:33;;;;;;;3.40;2.80;;;;;;;;;;5048317;28;20045;-60
2023/11/22 12:19:02;;;;;;;2.85;2.63;;;;;;;;;;5044378;28;20044;-61
2023/11/22 12:21:33;;;;;;;2.42;2.22;;;;;;;;;;5047886;28;20067;-60
2023/11/22 12:24:02;;;;;;;2.85;2.65;;;;;;;;;;5045936;28;20049;-60
2023/11/22 12:26:33;;;;;;;2.90;2.70;;;;;;;;;;5046687;28;20056;-60
2023/11/22 12:29:02;;;;;;;2.80;2.60;;;;;;;;;;5041940;28;20054;-61
2023/11/22 12:31:35;;;;;;;3.15;2.88;;;;;;;;;;5036895;28;20318;-60
2023/11/22 12:34:05;;;;;;;2.80;2.60;;;;;;;;;;5038924;28;20600;-60
2023/11/22 12:36:36;;;;;;;2.85;2.65;;;;;;;;;;5046779;28;20047;-61
2023/11/22 12:39:11;;;;;;;2.90;2.70;;;;;;;;;;5045153;28;20052;-62
2023/11/22 12:41:45;;;;;;;2.55;2.35;;;;;;;;;;5036831;28;20049;-61
2023/11/22 12:44:25;;;;;;;2.97;2.78;;;;;;;;;;5044731;28;20049;-60
2023/11/22 12:46:56;;;;;;;3.40;3.10;;;;;;;;;;5046519;28;20037;-62
2023/11/22 12:49:27;;;;;;;2.67;2.47;;;;;;;;;;5040130;28;20344;-62
2023/11/22 12:51:57;;;;;;;3.22;2.80;;;;;;;;;;5046906;28;20060;-60
2023/11/22 12:54:26;;;;;;;3.25;2.95;;;;;;;;;;5041028;28;20051;-60
2023/11/22 12:56:57;;;;;;;3.35;2.95;;;;;;;;;;5044234;28;20052;-60
2023/11/22 12:59:30;;;;;;;3.00;2.80;;;;;;;;;;5041096;28;20167;-62
2023/11/22 13:02:02;;;;;;;2.97;2.58;;;;;;;;;;5041340;28;20053;-61
2023/11/22 13:04:31;;;;;;;2.92;2.72;;;;;;;;;;5042187;28;20102;-60
2023/11/22 13:07:00;;;;;;;5.25;2.47;;;;;;;;;;5045915;28;20041;-60
2023/11/22 13:09:31;;;;;;;2.55;2.35;;;;;;;;;;5042808;28;20537;-61
2023/11/22 13:12:00;;;;;;;4.25;2.47;;;;;;;;;;5042280;28;20059;-63
2023/11/22 13:14:32;;;;;;;2.70;2.50;;;;;;;;;;5041457;28;20450;-60
2023/11/22 13:17:02;;;;;;;2.60;2.40;;;;;;;;;;5040758;28;20051;-61
2023/11/22 13:19:30;;;;;;;3.08;2.85;;;;;;;;;;5041031;28;20140;-62
2023/11/22 13:21:59;;;;;;;3.08;2.88;;;;;;;;;;5044761;28;20053;-61
2023/11/22 13:24:27;;;;;;;3.92;2.40;;;;;;;;;;5041012;28;20040;-61
2023/11/22 13:26:55;;;;;;;2.90;2.70;;;;;;;;;;5046131;28;20075;-61
2023/11/22 13:29:24;;;;;;;2.70;2.50;;;;;;;;;;5041995;28;20087;-63
2023/11/22 13:31:52;;;;;;;2.95;2.72;;;;;;;;;;5041748;28;20045;-61
2023/11/22 13:34:22;;;;;;;3.22;2.65;;;;;;;;;;5040501;28;20501;-61
2023/11/22 13:36:51;;;;;;;3.88;3.00;;;;;;;;;;5044832;28;20051;-61
2023/11/22 13:39:19;;;;;;;2.92;2.67;;;;;;;;;;5034575;28;20063;-61
2023/11/22 13:41:49;;;;;;;2.90;2.70;;;;;;;;;;5044792;28;20449;-60
2023/11/22 13:44:19;;;;;;;2.97;2.75;;;;;;;;;;5043957;28;20053;-61
2023/11/22 13:46:48;;;;;;;2.70;2.50;;;;;;;;;;5040881;28;20099;-61
2023/11/22 13:49:17;;;;;;;3.75;3.28;;;;;;;;;;5047618;28;20061;-60
2023/11/22 13:51:48;;;;;;;3.05;2.80;;;;;;;;;;5041732;28;20045;-60
2023/11/22 13:54:17;;;;;;;3.42;3.13;;;;;;;;;;5045911;28;20045;-61
2023/11/22 13:56:46;;;;;;;2.83;2.63;;;;;;;;;;5037094;28;20045;-61
2023/11/22 13:59:14;;;;;;;5.22;3.10;;;;;;;;;;5043263;28;20040;-61
2023/11/22 14:01:43;;;;;;;3.25;2.92;;;;;;;;;;5043133;28;20099;-62
2023/11/22 14:04:13;;;;;;;3.38;3.08;;;;;;;;;;5046543;28;20049;-61
2023/11/22 14:06:41;;;;;;;3.08;2.88;;;;;;;;;;5037746;28;20133;-61
2023/11/22 14:09:12;;;;;;;2.95;2.75;;;;;;;;;;5041390;28;20041;-60
2023/11/22 14:11:41;;;;;;;2.88;2.67;;;;;;;;;;5042905;28;20130;-60
2023/11/22 14:14:09;;;;;;;3.20;2.90;;;;;;;;;;5039871;28;20049;-60
2023/11/22 14:16:44;;;;;;;4.00;3.00;;;;;;;;;;5036976;28;20057;-60
2023/11/22 14:19:13;;;;;;;3.42;3.13;;;;;;;;;;5047289;28;20068;-60
2023/11/22 14:21:41;;;;;;;3.78;2.78;;;;;;;;;;5046606;28;20049;-61
2023/11/22 14:24:12;;;;;;;2.97;2.78;;;;;;;;;;5038521;28;20041;-60
2023/11/22 14:26:41;;;;;;;2.72;2.53;;;;;;;;;;5040176;28;20053;-61
2023/11/22 14:29:09;;;;;;;2.50;2.30;;;;;;;;;;5033074;28;20100;-61
2023/11/22 14:31:38;;;;;;;2.70;2.50;;;;;;;;;;5047908;28;20053;-60
2023/11/22 14:34:06;;;;;;;3.00;2.80;;;;;;;;;;5048265;28;20449;-61
2023/11/22 14:36:36;;;;;;;2.60;2.22;;;;;;;;;;5050355;28;20494;-60
2023/11/22 14:39:07;;;;;;;2.50;2.33;;;;;;;;;;5050106;28;20051;-62
2023/11/22 14:41:36;;;;;;;2.38;2.28;;;;;;;;;;5049737;28;20052;-60
2023/11/22 14:44:05;;;;;;;2.92;2.72;;;;;;;;;;5044927;28;20409;-60
2023/11/22 14:46:35;;;;;;;3.25;2.80;;;;;;;;;;5050088;28;20114;-60
2023/11/22 14:49:04;;;;;;;2.47;2.28;;;;;;;;;;5041717;28;20049;-61
2023/11/22 14:51:33;;;;;;;2.25;2.15;;;;;;;;;;5029636;28;20068;-60
2023/11/22 14:54:02;;;;;;;2.50;2.30;;;;;;;;;;5043514;28;20041;-60